| time (UTC) | temp F | wind direction | speed MPH | gust MPH | rain 1hr in | rain 24hr in | rain mn in | humidity % | barometer mb |
| 20260508082503 | 61 | 48 | 0.0 | 1.0 | 0.04 | 0.09 | 0.09 | 89 | 1013.9 |
| 20260508082003 | 61 | 336 | 0.0 | 1.0 | 0.03 | 0.08 | 0.08 | 89 | 1014.1 |
| 20260508081503 | 61 | 312 | 0.0 | 2.0 | 0.04 | 0.08 | 0.08 | 89 | 1014.1 |
| 20260508081003 | 61 | 291 | 0.0 | 2.0 | 0.05 | 0.08 | 0.08 | 89 | 1014.1 |
| 20260508080503 | 61 | 289 | 0.0 | 2.0 | 0.06 | 0.08 | 0.08 | 89 | 1014.4 |
| 20260508080003 | 61 | 286 | 0.0 | 3.0 | 0.08 | 0.08 | 0.08 | 89 | 1014.6 |
| 20260508075503 | 61 | 24 | 0.0 | 3.0 | 0.08 | 0.08 | 0.08 | 88 | 1014.3 |
| 20260508075003 | 61 | 50 | 0.0 | 3.0 | 0.08 | 0.08 | 0.08 | 88 | 1014.3 |
| 20260508074503 | 61 | 55 | 0.0 | 1.0 | 0.08 | 0.08 | 0.08 | 87 | 1013.8 |
| 20260508074003 | 61 | 55 | 0.0 | 2.0 | 0.08 | 0.08 | 0.08 | 86 | 1013.8 |
| 20260508073503 | 61 | 26 | 0.0 | 3.0 | 0.07 | 0.07 | 0.07 | 86 | 1014.3 |
| 20260508073003 | 61 | 305 | 0.0 | 3.0 | 0.07 | 0.07 | 0.07 | 85 | 1014.3 |
| 20260508072503 | 62 | 264 | 0.0 | 2.0 | 0.05 | 0.05 | 0.05 | 85 | 1014.8 |
| 20260508072003 | 62 | 265 | 0.0 | 2.0 | 0.05 | 0.05 | 0.05 | 84 | 1015.3 |
| 20260508071503 | 62 | 265 | 0.0 | 2.0 | 0.04 | 0.04 | 0.04 | 82 | 1015.2 |
| 20260508071003 | 63 | 260 | 0.0 | 2.0 | 0.03 | 0.03 | 0.03 | 81 | 1015.1 |
| 20260508070503 | 63 | 175 | 0.0 | 2.0 | 0.02 | 0.02 | 0.02 | 79 | 1015.4 |
| 20260508070212 | 63 | 131 | 0.0 | 2.0 | 0.00 | 0.00 | 0.01 | 78 | 1015.4 |
| 20260508065503 | 63 | 119 | 0.0 | 2.0 | 0.00 | 0.00 | 0.00 | 77 | 1015.0 |
| 20260508065212 | 64 | 119 | 0.0 | 1.0 | 0.00 | 0.00 | 0.00 | 77 | 1015.2 |
| 20260508064503 | 64 | 0 | 0.0 | 0.0 | 0.00 | 0.00 | 0.00 | 75 | 1014.5 |
| 20260508064003 | 64 | 0 | 0.0 | 0.0 | 0.00 | 0.00 | 0.00 | 75 | 1014.9 |
| 20260508063503 | 64 | 0 | 0.0 | 0.0 | 0.00 | 0.00 | 0.00 | 76 | 1014.6 |
| 20260508063003 | 64 | 0 | 0.0 | 0.0 | 0.00 | 0.00 | 0.00 | 77 | 1015.0 |
| 20260508062503 | 64 | 0 | 0.0 | 0.0 | 0.00 | 0.00 | 0.00 | 77 | 1015.0 |
| 20260508062214 | 64 | 0 | 0.0 | 0.0 | 0.00 | 0.00 | 0.00 | 77 | 1015.0 |
| 20260508061503 | 64 | 0 | 0.0 | 0.0 | 0.00 | 0.00 | 0.00 | 76 | 1015.4 |
| 20260508061003 | 64 | 0 | 0.0 | 0.0 | 0.00 | 0.00 | 0.00 | 74 | 1015.2 |
| 20260508060503 | 63 | 0 | 0.0 | 0.0 | 0.00 | 0.00 | 0.00 | 75 | 1015.1 |
| 20260508060003 | 63 | 0 | 0.0 | 0.0 | 0.00 | 0.00 | 0.00 | 76 | 1015.1 |
| 20260508055503 | 63 | 0 | 0.0 | 0.0 | 0.00 | 0.00 | 0.00 | 76 | 1015.3 |
| 20260508055003 | 63 | 119 | 0.0 | 1.0 | 0.00 | 0.00 | 0.00 | 77 | 1015.4 |
| 20260508054713 | 63 | 119 | 0.0 | 1.0 | 0.00 | 0.00 | 0.00 | 77 | 1015.4 |
| 20260508054003 | 63 | 0 | 0.0 | 0.0 | 0.00 | 0.00 | 0.00 | 75 | 1015.3 |
| 20260508053713 | 63 | 0 | 0.0 | 0.0 | 0.00 | 0.00 | 0.00 | 76 | 1015.2 |
| 20260508053003 | 63 | 0 | 0.0 | 0.0 | 0.00 | 0.00 | 0.00 | 76 | 1015.1 |
| 20260508052503 | 62 | 0 | 0.0 | 0.0 | 0.00 | 0.00 | 0.00 | 77 | 1015.1 |
| 20260508052003 | 62 | 0 | 0.0 | 0.0 | 0.00 | 0.00 | 0.00 | 77 | 1015.0 |
| 20260508051712 | 62 | 0 | 0.0 | 0.0 | 0.00 | 0.00 | 0.00 | 77 | 1015.1 |
| 20260508051003 | 62 | 0 | 0.0 | 0.0 | 0.00 | 0.00 | 0.00 | 77 | 1015.2 |
| 20260508050503 | 62 | 0 | 0.0 | 0.0 | 0.00 | 0.00 | 0.00 | 78 | 1015.1 |
| 20260508050003 | 62 | 0 | 0.0 | 0.0 | 0.00 | 0.00 | 0.00 | 78 | 1015.3 |
| 20260508045503 | 62 | 0 | 0.0 | 0.0 | 0.00 | 0.00 | 0.00 | 78 | 1015.3 |
| 20260508045003 | 62 | 0 | 0.0 | 0.0 | 0.00 | 0.00 | 0.00 | 78 | 1015.2 |
| 20260508044503 | 63 | 0 | 0.0 | 0.0 | 0.00 | 0.00 | 0.00 | 78 | 1015.3 |
| 20260508044003 | 63 | 0 | 0.0 | 0.0 | 0.00 | 0.00 | 0.00 | 77 | 1015.3 |
| 20260508043503 | 63 | 0 | 0.0 | 0.0 | 0.00 | 0.00 | 0.00 | 76 | 1015.3 |
| 20260508043003 | 64 | 0 | 0.0 | 0.0 | 0.00 | 0.00 | 0.00 | 75 | 1015.3 |
| 20260508042503 | 63 | 0 | 0.0 | 0.0 | 0.00 | 0.00 | 0.00 | 75 | 1015.1 |
| 20260508042003 | 63 | 0 | 0.0 | 0.0 | 0.00 | 0.00 | 0.00 | 75 | 1015.1 |
| 20260508041503 | 63 | 0 | 0.0 | 0.0 | 0.00 | 0.00 | 0.00 | 75 | 1015.1 |
| 20260508041003 | 63 | 0 | 0.0 | 0.0 | 0.00 | 0.00 | 0.00 | 74 | 1015.1 |
| 20260508040503 | 63 | 0 | 0.0 | 0.0 | 0.00 | 0.00 | 0.00 | 74 | 1015.1 |
| 20260508040003 | 63 | 0 | 0.0 | 0.0 | 0.00 | 0.00 | 0.00 | 74 | 1015.1 |
| 20260508035503 | 63 | 0 | 0.0 | 0.0 | 0.00 | 0.00 | 0.00 | 73 | 1015.1 |
| 20260508035003 | 64 | 0 | 0.0 | 0.0 | 0.00 | 0.00 | 0.00 | 72 | 1015.2 |
| 20260508034503 | 64 | 0 | 0.0 | 0.0 | 0.00 | 0.00 | 0.00 | 71 | 1015.0 |
| 20260508034003 | 64 | 0 | 0.0 | 0.0 | 0.00 | 0.00 | 0.00 | 70 | 1015.0 |
| 20260508033503 | 64 | 0 | 0.0 | 0.0 | 0.00 | 0.00 | 0.00 | 70 | 1014.9 |
| 20260508033213 | 64 | 0 | 0.0 | 0.0 | 0.00 | 0.00 | 0.00 | 70 | 1014.9 |
| 20260508032503 | 64 | 119 | 0.0 | 1.0 | 0.00 | 0.00 | 0.00 | 69 | 1014.9 |
| 20260508032003 | 65 | 119 | 0.0 | 1.0 | 0.00 | 0.00 | 0.00 | 69 | 1015.0 |
| 20260508031503 | 65 | 119 | 0.0 | 1.0 | 0.00 | 0.00 | 0.00 | 69 | 1014.9 |
| 20260508031003 | 65 | 119 | 0.0 | 1.0 | 0.00 | 0.00 | 0.00 | 69 | 1014.7 |
| 20260508030503 | 65 | 119 | 0.0 | 2.0 | 0.00 | 0.00 | 0.00 | 68 | 1014.9 |
| 20260508030003 | 65 | 119 | 0.0 | 2.0 | 0.00 | 0.00 | 0.00 | 68 | 1014.7 |
| 20260508025503 | 65 | 119 | 0.0 | 2.0 | 0.00 | 0.00 | 0.00 | 68 | 1014.8 |
| 20260508025003 | 65 | 119 | 0.0 | 2.0 | 0.00 | 0.00 | 0.00 | 68 | 1014.7 |
| 20260508024503 | 65 | 119 | 0.0 | 1.0 | 0.00 | 0.00 | 0.00 | 68 | 1014.7 |
| 20260508024003 | 65 | 119 | 0.0 | 2.0 | 0.00 | 0.00 | 0.00 | 68 | 1014.5 |
| 20260508023503 | 66 | 126 | 0.0 | 4.0 | 0.00 | 0.00 | 0.00 | 67 | 1014.5 |
| 20260508023003 | 66 | 134 | 1.0 | 4.0 | 0.00 | 0.00 | 0.00 | 67 | 1014.3 |
| 20260508022503 | 66 | 140 | 1.0 | 3.0 | 0.00 | 0.00 | 0.00 | 66 | 1014.3 |
| 20260508022003 | 66 | 138 | 1.0 | 3.0 | 0.00 | 0.00 | 0.00 | 66 | 1014.4 |
| 20260508021713 | 66 | 133 | 0.0 | 3.0 | 0.00 | 0.00 | 0.00 | 66 | 1014.4 |
| 20260508021003 | 66 | 132 | 1.0 | 3.0 | 0.00 | 0.00 | 0.00 | 66 | 1014.3 |
| 20260508020503 | 66 | 126 | 1.0 | 3.0 | 0.00 | 0.00 | 0.00 | 66 | 1014.3 |
| 20260508020003 | 67 | 153 | 0.0 | 3.0 | 0.00 | 0.00 | 0.00 | 66 | 1014.3 |
| 20260508015503 | 67 | 171 | 0.0 | 2.0 | 0.00 | 0.00 | 0.00 | 66 | 1014.2 |
| 20260508015003 | 67 | 171 | 0.0 | 2.0 | 0.00 | 0.00 | 0.00 | 66 | 1014.1 |
| 20260508014503 | 67 | 171 | 0.0 | 2.0 | 0.00 | 0.00 | 0.00 | 65 | 1014.2 |
| 20260508014003 | 67 | 171 | 0.0 | 2.0 | 0.00 | 0.00 | 0.00 | 65 | 1014.2 |
| 20260508013503 | 68 | 166 | 0.0 | 2.0 | 0.00 | 0.00 | 0.00 | 64 | 1014.1 |
| 20260508013003 | 68 | 128 | 1.0 | 3.0 | 0.00 | 0.00 | 0.00 | 64 | 1014.1 |
| 20260508012503 | 68 | 130 | 2.0 | 4.0 | 0.00 | 0.00 | 0.00 | 64 | 1014.1 |
| 20260508012214 | 68 | 134 | 2.0 | 4.0 | 0.00 | 0.00 | 0.00 | 63 | 1014.1 |
| 20260508011503 | 68 | 142 | 2.0 | 6.0 | 0.00 | 0.00 | 0.00 | 63 | 1014.0 |
| 20260508011214 | 68 | 145 | 2.0 | 6.0 | 0.00 | 0.00 | 0.00 | 63 | 1014.1 |
| 20260508010503 | 69 | 140 | 2.0 | 5.0 | 0.00 | 0.00 | 0.00 | 63 | 1014.2 |
| 20260508010003 | 69 | 153 | 2.0 | 4.0 | 0.00 | 0.00 | 0.00 | 62 | 1014.2 |
| 20260508005503 | 69 | 149 | 2.0 | 4.0 | 0.00 | 0.00 | 0.00 | 61 | 1014.3 |
| 20260508005003 | 69 | 132 | 3.0 | 8.0 | 0.00 | 0.00 | 0.00 | 61 | 1014.2 |
| 20260508004503 | 70 | 129 | 2.0 | 8.0 | 0.00 | 0.00 | 0.00 | 60 | 1014.0 |
| 20260508004003 | 70 | 129 | 2.0 | 8.0 | 0.00 | 0.00 | 0.00 | 60 | 1014.0 |
| 20260508003503 | 71 | 132 | 1.0 | 8.0 | 0.00 | 0.00 | 0.00 | 59 | 1013.9 |
| 20260508003003 | 71 | 153 | 0.0 | 2.0 | 0.00 | 0.00 | 0.00 | 60 | 1013.9 |
| 20260508002503 | 72 | 153 | 0.0 | 2.0 | 0.00 | 0.00 | 0.00 | 59 | 1014.0 |
| 20260508002003 | 72 | 153 | 0.0 | 2.0 | 0.00 | 0.00 | 0.00 | 56 | 1013.9 |
| 20260508001503 | 72 | 154 | 0.0 | 1.0 | 0.00 | 0.00 | 0.00 | 53 | 1014.0 |
| 20260508001003 | 72 | 154 | 0.0 | 2.0 | 0.00 | 0.00 | 0.00 | 52 | 1014.1 |
| 20260508000503 | 72 | 154 | 0.0 | 2.0 | 0.00 | 0.00 | 0.00 | 55 | 1014.1 |
| 20260508000003 | 73 | 154 | 0.0 | 2.0 | 0.00 | 0.00 | 0.00 | 53 | 1014.4 |
| 20260507234503 | 73 | 151 | 1.0 | 3.0 | 0.00 | 0.00 | 0.00 | 53 | 1014.3 |
| 20260507234003 | 73 | 129 | 1.0 | 3.0 | 0.00 | 0.00 | 0.00 | 53 | 1014.3 |
| 20260507233503 | 73 | 113 | 1.0 | 3.0 | 0.00 | 0.00 | 0.00 | 54 | 1014.3 |
| 20260507233003 | 73 | 94 | 1.0 | 3.0 | 0.00 | 0.00 | 0.00 | 52 | 1014.3 |
| 20260507232503 | 73 | 63 | 1.0 | 3.0 | 0.00 | 0.00 | 0.00 | 52 | 1014.4 |
| 20260507232003 | 73 | 41 | 0.0 | 2.0 | 0.00 | 0.00 | 0.00 | 53 | 1014.4 |
| 20260507231503 | 73 | 49 | 0.0 | 2.0 | 0.00 | 0.00 | 0.00 | 51 | 1014.4 |
| 20260507231213 | 73 | 66 | 1.0 | 3.0 | 0.00 | 0.00 | 0.00 | 51 | 1014.2 |
| 20260507230503 | 73 | 77 | 1.0 | 4.0 | 0.00 | 0.00 | 0.00 | 51 | 1014.4 |
| 20260507230003 | 73 | 77 | 1.0 | 4.0 | 0.00 | 0.00 | 0.00 | 50 | 1014.5 |
| 20260507225503 | 74 | 75 | 1.0 | 3.0 | 0.00 | 0.00 | 0.00 | 51 | 1014.5 |
| 20260507225003 | 73 | 69 | 1.0 | 5.0 | 0.00 | 0.00 | 0.00 | 50 | 1014.6 |
| 20260507224503 | 74 | 63 | 1.0 | 5.0 | 0.00 | 0.00 | 0.00 | 51 | 1014.6 |
| 20260507224003 | 74 | 60 | 1.0 | 4.0 | 0.00 | 0.00 | 0.00 | 51 | 1014.6 |
| 20260507223503 | 74 | 66 | 1.0 | 4.0 | 0.00 | 0.00 | 0.00 | 50 | 1014.6 |
| 20260507223003 | 74 | 77 | 1.0 | 4.0 | 0.00 | 0.00 | 0.00 | 50 | 1014.6 |
| 20260507222503 | 74 | 74 | 1.0 | 3.0 | 0.00 | 0.00 | 0.00 | 49 | 1014.6 |
| 20260507222003 | 74 | 69 | 1.0 | 3.0 | 0.00 | 0.00 | 0.00 | 50 | 1014.7 |
| 20260507221714 | 74 | 69 | 1.0 | 4.0 | 0.00 | 0.00 | 0.00 | 49 | 1014.7 |
| 20260507221003 | 74 | 83 | 1.0 | 4.0 | 0.00 | 0.00 | 0.00 | 50 | 1014.8 |
| 20260507220503 | 74 | 77 | 1.0 | 3.0 | 0.00 | 0.00 | 0.00 | 49 | 1014.8 |
| 20260507220003 | 74 | 45 | 1.0 | 3.0 | 0.00 | 0.00 | 0.00 | 48 | 1014.8 |
| 20260507215714 | 74 | 21 | 1.0 | 3.0 | 0.00 | 0.00 | 0.00 | 49 | 1014.8 |
| 20260507215212 | 74 | 110 | 1.0 | 3.0 | 0.00 | 0.00 | 0.00 | 50 | 1014.8 |
| 20260507214503 | 74 | 123 | 1.0 | 4.0 | 0.00 | 0.00 | 0.00 | 50 | 1014.9 |
| 20260507214213 | 74 | 127 | 1.0 | 4.0 | 0.00 | 0.00 | 0.00 | 50 | 1014.9 |
| 20260507213503 | 74 | 325 | 1.0 | 4.0 | 0.00 | 0.00 | 0.00 | 49 | 1015.0 |
| 20260507213003 | 74 | 12 | 1.0 | 4.0 | 0.00 | 0.00 | 0.00 | 48 | 1015.0 |
| 20260507212503 | 75 | 76 | 1.0 | 3.0 | 0.00 | 0.00 | 0.00 | 48 | 1015.1 |
| 20260507212003 | 75 | 67 | 1.0 | 4.0 | 0.00 | 0.00 | 0.00 | 48 | 1015.1 |
| 20260507211503 | 75 | 63 | 1.0 | 5.0 | 0.00 | 0.00 | 0.00 | 49 | 1015.2 |
| 20260507211003 | 75 | 61 | 2.0 | 5.0 | 0.00 | 0.00 | 0.00 | 47 | 1015.3 |
| 20260507210503 | 75 | 50 | 1.0 | 5.0 | 0.00 | 0.00 | 0.00 | 47 | 1015.4 |
| 20260507210003 | 75 | 7 | 1.0 | 5.0 | 0.00 | 0.00 | 0.00 | 48 | 1015.4 |
| 20260507205503 | 76 | 50 | 1.0 | 5.0 | 0.00 | 0.00 | 0.00 | 49 | 1015.3 |
| 20260507205212 | 75 | 83 | 2.0 | 5.0 | 0.00 | 0.00 | 0.00 | 46 | 1015.4 |
| 20260507204503 | 75 | 75 | 2.0 | 7.0 | 0.00 | 0.00 | 0.00 | 45 | 1015.3 |
| 20260507204003 | 76 | 64 | 2.0 | 7.0 | 0.00 | 0.00 | 0.00 | 47 | 1015.3 |
| 20260507203503 | 76 | 59 | 1.0 | 6.0 | 0.00 | 0.00 | 0.00 | 48 | 1015.3 |
| 20260507203003 | 75 | 22 | 1.0 | 4.0 | 0.00 | 0.00 | 0.00 | 49 | 1015.2 |
| 20260507202503 | 76 | 29 | 1.0 | 6.0 | 0.00 | 0.00 | 0.00 | 48 | 1015.3 |
| 20260507202003 | 76 | 38 | 1.0 | 6.0 | 0.00 | 0.00 | 0.00 | 48 | 1015.5 |
| 20260507201503 | 75 | 3 | 1.0 | 5.0 | 0.00 | 0.00 | 0.00 | 48 | 1015.6 |
| 20260507201003 | 76 | 38 | 2.0 | 7.0 | 0.00 | 0.00 | 0.00 | 48 | 1015.6 |
| 20260507200713 | 76 | 52 | 2.0 | 7.0 | 0.00 | 0.00 | 0.00 | 46 | 1015.7 |
| 20260507200003 | 75 | 349 | 2.0 | 8.0 | 0.00 | 0.00 | 0.00 | 47 | 1015.8 |
| 20260507195503 | 75 | 351 | 2.0 | 8.0 | 0.00 | 0.00 | 0.00 | 46 | 1016.1 |
| 20260507195003 | 76 | 355 | 2.0 | 7.0 | 0.00 | 0.00 | 0.00 | 46 | 1015.9 |
| 20260507194503 | 75 | 345 | 1.0 | 4.0 | 0.00 | 0.00 | 0.00 | 46 | 1016.0 |
| 20260507194003 | 75 | 64 | 1.0 | 7.0 | 0.00 | 0.00 | 0.00 | 49 | 1016.1 |
| 20260507193503 | 75 | 60 | 1.0 | 6.0 | 0.00 | 0.00 | 0.00 | 46 | 1016.1 |
| 20260507193003 | 75 | 49 | 1.0 | 3.0 | 0.00 | 0.00 | 0.00 | 48 | 1016.2 |
| 20260507192503 | 74 | 39 | 1.0 | 3.0 | 0.00 | 0.00 | 0.00 | 50 | 1016.5 |
| 20260507192003 | 73 | 347 | 1.0 | 8.0 | 0.00 | 0.00 | 0.00 | 49 | 1016.5 |
| 20260507191503 | 74 | 342 | 2.0 | 8.0 | 0.00 | 0.00 | 0.00 | 47 | 1016.4 |
| 20260507191003 | 74 | 19 | 2.0 | 7.0 | 0.00 | 0.00 | 0.00 | 45 | 1016.4 |
| 20260507190712 | 74 | 34 | 1.0 | 6.0 | 0.00 | 0.00 | 0.00 | 47 | 1016.6 |
| 20260507190213 | 74 | 16 | 1.0 | 6.0 | 0.00 | 0.00 | 0.00 | 48 | 1016.7 |
| 20260507185503 | 74 | 324 | 1.0 | 8.0 | 0.00 | 0.00 | 0.00 | 48 | 1016.9 |
| 20260507185003 | 74 | 331 | 2.0 | 9.0 | 0.00 | 0.00 | 0.00 | 50 | 1016.9 |
| 20260507184503 | 73 | 339 | 2.0 | 9.0 | 0.00 | 0.00 | 0.00 | 49 | 1017.0 |
| 20260507184214 | 73 | 332 | 1.0 | 8.0 | 0.00 | 0.00 | 0.00 | 48 | 1016.9 |
| 20260507183503 | 73 | 330 | 2.0 | 7.0 | 0.00 | 0.00 | 0.00 | 52 | 1017.0 |
| 20260507183003 | 73 | 332 | 2.0 | 7.0 | 0.00 | 0.00 | 0.00 | 50 | 1017.1 |
| 20260507182713 | 72 | 336 | 1.0 | 5.0 | 0.00 | 0.00 | 0.00 | 51 | 1017.1 |
| 20260507182003 | 72 | 348 | 2.0 | 8.0 | 0.00 | 0.00 | 0.00 | 50 | 1017.1 |
| 20260507181503 | 73 | 342 | 2.0 | 9.0 | 0.00 | 0.00 | 0.00 | 49 | 1017.1 |
| 20260507181003 | 73 | 328 | 2.0 | 9.0 | 0.00 | 0.00 | 0.00 | 50 | 1017.2 |
| 20260507180712 | 72 | 325 | 2.0 | 9.0 | 0.00 | 0.00 | 0.00 | 52 | 1017.2 |
| 20260507180003 | 72 | 333 | 1.0 | 7.0 | 0.00 | 0.00 | 0.00 | 53 | 1017.4 |
| 20260507175503 | 71 | 343 | 1.0 | 7.0 | 0.00 | 0.00 | 0.00 | 52 | 1017.4 |
| 20260507175003 | 72 | 8 | 1.0 | 7.0 | 0.00 | 0.00 | 0.00 | 54 | 1017.4 |
| 20260507174503 | 72 | 23 | 1.0 | 5.0 | 0.00 | 0.00 | 0.00 | 52 | 1017.6 |
| 20260507174003 | 72 | 27 | 1.0 | 5.0 | 0.00 | 0.00 | 0.00 | 53 | 1017.8 |
| 20260507173503 | 71 | 35 | 1.0 | 5.0 | 0.00 | 0.00 | 0.00 | 55 | 1017.9 |
| 20260507173003 | 71 | 35 | 1.0 | 6.0 | 0.00 | 0.00 | 0.00 | 54 | 1018.1 |
| 20260507172503 | 70 | 34 | 1.0 | 6.0 | 0.00 | 0.00 | 0.00 | 52 | 1018.1 |
| 20260507172003 | 71 | 38 | 1.0 | 5.0 | 0.00 | 0.00 | 0.00 | 55 | 1018.2 |
| 20260507171503 | 70 | 2 | 1.0 | 6.0 | 0.00 | 0.00 | 0.00 | 55 | 1018.5 |
| 20260507171003 | 70 | 335 | 1.0 | 6.0 | 0.00 | 0.00 | 0.00 | 54 | 1018.6 |
| 20260507170503 | 70 | 314 | 1.0 | 6.0 | 0.00 | 0.00 | 0.00 | 55 | 1018.8 |
| 20260507170213 | 70 | 321 | 1.0 | 6.0 | 0.00 | 0.00 | 0.00 | 56 | 1018.8 |
| 20260507165503 | 69 | 352 | 1.0 | 5.0 | 0.00 | 0.00 | 0.00 | 54 | 1018.9 |
| 20260507165003 | 69 | 1 | 1.0 | 5.0 | 0.00 | 0.00 | 0.00 | 58 | 1019.0 |
| 20260507164503 | 69 | 8 | 1.0 | 4.0 | 0.00 | 0.00 | 0.00 | 55 | 1019.0 |
| 20260507164003 | 68 | 1 | 1.0 | 5.0 | 0.00 | 0.00 | 0.00 | 58 | 1019.1 |
| 20260507163714 | 68 | 1 | 1.0 | 5.0 | 0.00 | 0.00 | 0.00 | 56 | 1019.0 |
| 20260507163003 | 68 | 9 | 1.0 | 5.0 | 0.00 | 0.00 | 0.00 | 58 | 1019.1 |
| 20260507162503 | 68 | 348 | 1.0 | 6.0 | 0.00 | 0.00 | 0.00 | 61 | 1019.1 |
| 20260507162003 | 68 | 352 | 1.0 | 6.0 | 0.00 | 0.00 | 0.00 | 59 | 1019.1 |
| 20260507161503 | 67 | 343 | 1.0 | 7.0 | 0.00 | 0.00 | 0.00 | 60 | 1019.2 |
| 20260507161003 | 67 | 341 | 1.0 | 7.0 | 0.00 | 0.00 | 0.00 | 62 | 1019.1 |
| 20260507160503 | 68 | 4 | 1.0 | 6.0 | 0.00 | 0.00 | 0.00 | 59 | 1019.1 |
| 20260507160003 | 68 | 33 | 1.0 | 6.0 | 0.00 | 0.00 | 0.00 | 62 | 1019.2 |
| 20260507155503 | 66 | 36 | 2.0 | 6.0 | 0.00 | 0.00 | 0.00 | 64 | 1019.1 |
| 20260507155003 | 66 | 9 | 2.0 | 6.0 | 0.00 | 0.00 | 0.00 | 63 | 1019.2 |
| 20260507154503 | 66 | 348 | 2.0 | 5.0 | 0.00 | 0.00 | 0.00 | 66 | 1019.1 |
| 20260507154003 | 66 | 339 | 1.0 | 6.0 | 0.00 | 0.00 | 0.00 | 66 | 1019.2 |
| 20260507153503 | 65 | 351 | 1.0 | 6.0 | 0.00 | 0.00 | 0.00 | 66 | 1019.2 |
| 20260507153003 | 65 | 349 | 1.0 | 4.0 | 0.00 | 0.00 | 0.00 | 66 | 1019.2 |
| 20260507152503 | 65 | 3 | 1.0 | 4.0 | 0.00 | 0.00 | 0.00 | 69 | 1019.3 |
| 20260507152003 | 64 | 47 | 1.0 | 3.0 | 0.00 | 0.00 | 0.00 | 69 | 1019.6 |
| 20260507151503 | 64 | 23 | 1.0 | 5.0 | 0.00 | 0.00 | 0.00 | 71 | 1019.6 |
| 20260507151003 | 63 | 357 | 1.0 | 5.0 | 0.00 | 0.01 | 0.00 | 72 | 1019.6 |
| 20260507150503 | 62 | 347 | 1.0 | 3.0 | 0.00 | 0.03 | 0.00 | 73 | 1019.6 |
| 20260507150003 | 62 | 355 | 1.0 | 4.0 | 0.00 | 0.03 | 0.00 | 73 | 1019.7 |
| 20260507145503 | 61 | 42 | 1.0 | 4.0 | 0.00 | 0.03 | 0.00 | 75 | 1019.6 |
| 20260507145003 | 60 | 27 | 1.0 | 4.0 | 0.00 | 0.03 | 0.00 | 75 | 1019.6 |
| 20260507144503 | 60 | 353 | 1.0 | 6.0 | 0.00 | 0.03 | 0.00 | 75 | 1019.8 |
| 20260507144003 | 60 | 342 | 1.0 | 6.0 | 0.00 | 0.03 | 0.00 | 75 | 1019.6 |
| 20260507143503 | 61 | 337 | 1.0 | 5.0 | 0.00 | 0.03 | 0.00 | 75 | 1019.8 |
| 20260507143003 | 60 | 327 | 1.0 | 5.0 | 0.00 | 0.03 | 0.00 | 76 | 1019.8 |
| 20260507142503 | 61 | 317 | 1.0 | 4.0 | 0.00 | 0.03 | 0.00 | 76 | 1019.8 |
| 20260507142003 | 60 | 334 | 1.0 | 4.0 | 0.00 | 0.03 | 0.00 | 77 | 1019.9 |
| 20260507141503 | 60 | 337 | 1.0 | 5.0 | 0.00 | 0.03 | 0.00 | 78 | 1019.9 |
| 20260507141003 | 59 | 321 | 1.0 | 5.0 | 0.00 | 0.03 | 0.00 | 78 | 1019.9 |
| 20260507140503 | 59 | 314 | 1.0 | 5.0 | 0.00 | 0.03 | 0.00 | 79 | 1020.0 |
| 20260507140214 | 59 | 330 | 1.0 | 4.0 | 0.00 | 0.03 | 0.00 | 79 | 1020.1 |
| 20260507135503 | 58 | 5 | 1.0 | 3.0 | 0.00 | 0.03 | 0.00 | 80 | 1020.0 |
| 20260507135003 | 57 | 326 | 1.0 | 3.0 | 0.00 | 0.03 | 0.00 | 82 | 1020.2 |
| 20260507134503 | 57 | 320 | 0.0 | 3.0 | 0.00 | 0.03 | 0.00 | 81 | 1020.1 |
| 20260507134003 | 57 | 318 | 0.0 | 2.0 | 0.00 | 0.03 | 0.00 | 83 | 1020.1 |
| 20260507133713 | 56 | 315 | 0.0 | 2.0 | 0.00 | 0.03 | 0.00 | 83 | 1020.1 |
| 20260507133003 | 55 | 303 | 0.0 | 2.0 | 0.00 | 0.03 | 0.00 | 84 | 1020.1 |
| 20260507132503 | 55 | 308 | 0.0 | 2.0 | 0.00 | 0.03 | 0.00 | 85 | 1020.3 |
| 20260507132003 | 55 | 312 | 0.0 | 1.0 | 0.00 | 0.03 | 0.00 | 86 | 1020.3 |
| 20260507131713 | 55 | 312 | 0.0 | 1.0 | 0.00 | 0.03 | 0.00 | 86 | 1020.3 |
| 20260507131003 | 54 | 312 | 0.0 | 1.0 | 0.00 | 0.03 | 0.00 | 88 | 1020.0 |
| 20260507130503 | 54 | 312 | 0.0 | 1.0 | 0.00 | 0.03 | 0.00 | 88 | 1020.2 |
| 20260507130003 | 54 | 312 | 0.0 | 1.0 | 0.00 | 0.03 | 0.00 | 89 | 1020.1 |
| 20260507125503 | 53 | 312 | 0.0 | 1.0 | 0.00 | 0.03 | 0.00 | 90 | 1020.0 |
| 20260507125213 | 53 | 0 | 0.0 | 0.0 | 0.00 | 0.03 | 0.00 | 90 | 1019.9 |
| 20260507124712 | 53 | 0 | 0.0 | 0.0 | 0.00 | 0.03 | 0.00 | 91 | 1019.8 |
| 20260507124003 | 52 | 0 | 0.0 | 0.0 | 0.00 | 0.03 | 0.00 | 91 | 1019.7 |
| 20260507123503 | 52 | 312 | 0.0 | 1.0 | 0.00 | 0.03 | 0.00 | 91 | 1019.6 |
| 20260507123003 | 52 | 312 | 0.0 | 1.0 | 0.00 | 0.03 | 0.00 | 91 | 1019.6 |
| 20260507122503 | 51 | 312 | 0.0 | 1.0 | 0.00 | 0.03 | 0.00 | 91 | 1019.6 |
| 20260507122213 | 51 | 312 | 0.0 | 1.0 | 0.00 | 0.03 | 0.00 | 91 | 1019.6 |
| 20260507121712 | 51 | 312 | 0.0 | 1.0 | 0.00 | 0.03 | 0.00 | 91 | 1019.7 |
| 20260507121003 | 51 | 0 | 0.0 | 0.0 | 0.00 | 0.03 | 0.00 | 90 | 1019.5 |
| 20260507120503 | 51 | 0 | 0.0 | 0.0 | 0.00 | 0.03 | 0.00 | 90 | 1019.5 |
| 20260507120003 | 51 | 0 | 0.0 | 0.0 | 0.00 | 0.03 | 0.00 | 90 | 1019.3 |
| 20260507115503 | 51 | 0 | 0.0 | 0.0 | 0.00 | 0.03 | 0.00 | 90 | 1019.2 |
| 20260507115003 | 51 | 0 | 0.0 | 0.0 | 0.00 | 0.03 | 0.00 | 90 | 1019.3 |
| 20260507114503 | 51 | 0 | 0.0 | 0.0 | 0.00 | 0.03 | 0.00 | 90 | 1019.1 |
| 20260507114003 | 51 | 0 | 0.0 | 0.0 | 0.00 | 0.03 | 0.00 | 90 | 1019.1 |
| 20260507113503 | 51 | 0 | 0.0 | 0.0 | 0.00 | 0.03 | 0.00 | 90 | 1019.0 |
| 20260507113003 | 51 | 0 | 0.0 | 0.0 | 0.00 | 0.03 | 0.00 | 90 | 1019.1 |
| 20260507112503 | 51 | 312 | 0.0 | 1.0 | 0.00 | 0.03 | 0.00 | 90 | 1019.0 |
| 20260507112003 | 51 | 312 | 0.0 | 2.0 | 0.00 | 0.03 | 0.00 | 90 | 1019.2 |
| 20260507111503 | 51 | 312 | 0.0 | 2.0 | 0.00 | 0.03 | 0.00 | 90 | 1019.1 |
| 20260507111003 | 52 | 0 | 0.0 | 0.0 | 0.00 | 0.03 | 0.00 | 90 | 1019.4 |
| 20260507110714 | 52 | 0 | 0.0 | 0.0 | 0.00 | 0.03 | 0.00 | 90 | 1019.4 |
| 20260507110003 | 52 | 0 | 0.0 | 0.0 | 0.00 | 0.03 | 0.00 | 90 | 1019.3 |
| 20260507105503 | 52 | 0 | 0.0 | 0.0 | 0.00 | 0.03 | 0.00 | 90 | 1019.3 |
| 20260507105003 | 52 | 0 | 0.0 | 0.0 | 0.00 | 0.03 | 0.00 | 90 | 1019.3 |
| 20260507104503 | 52 | 0 | 0.0 | 0.0 | 0.00 | 0.03 | 0.00 | 90 | 1019.0 |
| 20260507104003 | 52 | 0 | 0.0 | 0.0 | 0.00 | 0.03 | 0.00 | 90 | 1018.9 |
| 20260507103503 | 52 | 0 | 0.0 | 0.0 | 0.00 | 0.03 | 0.00 | 90 | 1019.0 |
| 20260507103003 | 52 | 0 | 0.0 | 0.0 | 0.00 | 0.03 | 0.00 | 90 | 1018.8 |
| 20260507102503 | 52 | 0 | 0.0 | 0.0 | 0.00 | 0.03 | 0.00 | 89 | 1018.8 |
| 20260507102003 | 52 | 0 | 0.0 | 0.0 | 0.00 | 0.03 | 0.00 | 89 | 1018.6 |
| 20260507101503 | 52 | 0 | 0.0 | 0.0 | 0.00 | 0.03 | 0.00 | 89 | 1018.6 |
| 20260507101212 | 52 | 0 | 0.0 | 0.0 | 0.00 | 0.03 | 0.00 | 89 | 1018.5 |
| 20260507100503 | 52 | 0 | 0.0 | 0.0 | 0.00 | 0.03 | 0.00 | 89 | 1018.3 |
| 20260507100003 | 52 | 0 | 0.0 | 0.0 | 0.00 | 0.03 | 0.00 | 88 | 1018.3 |
| 20260507095503 | 52 | 0 | 0.0 | 0.0 | 0.00 | 0.03 | 0.00 | 88 | 1018.3 |
| 20260507095003 | 53 | 311 | 0.0 | 1.0 | 0.00 | 0.03 | 0.00 | 88 | 1018.1 |
| 20260507094503 | 53 | 308 | 0.0 | 2.0 | 0.00 | 0.03 | 0.00 | 88 | 1018.0 |
| 20260507094212 | 53 | 314 | 0.0 | 3.0 | 0.00 | 0.03 | 0.00 | 88 | 1018.0 |
| 20260507093713 | 53 | 323 | 0.0 | 3.0 | 0.00 | 0.03 | 0.00 | 88 | 1018.0 |
| 20260507093003 | 53 | 337 | 0.0 | 3.0 | 0.00 | 0.03 | 0.00 | 88 | 1017.8 |
| 20260507092503 | 53 | 1 | 0.0 | 3.0 | 0.00 | 0.03 | 0.00 | 88 | 1017.6 |
| 20260507092003 | 53 | 351 | 1.0 | 6.0 | 0.00 | 0.03 | 0.00 | 87 | 1017.5 |
| 20260507091503 | 53 | 338 | 1.0 | 6.0 | 0.00 | 0.03 | 0.00 | 87 | 1017.5 |
| 20260507091003 | 53 | 341 | 1.0 | 6.0 | 0.00 | 0.03 | 0.00 | 87 | 1017.4 |
| 20260507090713 | 53 | 341 | 1.0 | 6.0 | 0.00 | 0.03 | 0.00 | 87 | 1017.3 |
| 20260507090003 | 53 | 329 | 1.0 | 3.0 | 0.00 | 0.03 | 0.00 | 87 | 1017.3 |
| 20260507085503 | 53 | 324 | 0.0 | 3.0 | 0.00 | 0.03 | 0.00 | 87 | 1017.4 |
| 20260507085003 | 54 | 328 | 0.0 | 1.0 | 0.00 | 0.03 | 0.00 | 87 | 1017.5 |
| 20260507084503 | 54 | 0 | 0.0 | 0.0 | 0.00 | 0.03 | 0.00 | 86 | 1017.7 |
| 20260507084003 | 54 | 327 | 0.0 | 1.0 | 0.00 | 0.03 | 0.00 | 86 | 1017.8 |
| 20260507083713 | 54 | 327 | 0.0 | 1.0 | 0.00 | 0.03 | 0.00 | 86 | 1017.6 |
| 20260507083003 | 54 | 327 | 0.0 | 1.0 | 0.00 | 0.03 | 0.00 | 85 | 1017.6 |